createdAt,value
2019-02-25T00:00:13.384Z,2.80
2019-02-25T00:02:54.833Z,3.42
2019-02-25T00:05:36.168Z,3.10
2019-02-25T00:08:17.116Z,3.75
2019-02-25T00:10:58.057Z,3.20
2019-02-25T00:13:39.521Z,3.40
2019-02-25T00:16:20.167Z,2.90
2019-02-25T00:19:01.540Z,3.10
2019-02-25T00:21:42.222Z,3.45
2019-02-25T00:24:23.112Z,2.90
2019-02-25T00:27:04.563Z,3.30
2019-02-25T00:29:45.286Z,4.22
2019-02-25T00:32:26.824Z,3.60
2019-02-25T00:35:07.528Z,3.33
2019-02-25T00:37:48.180Z,3.00
2019-02-25T00:40:29.464Z,2.58
2019-02-25T00:43:10.127Z,3.00
2019-02-25T00:45:50.740Z,2.85
2019-02-25T00:48:31.688Z,3.10
2019-02-25T00:51:12.491Z,2.77
2019-02-25T00:53:53.899Z,2.83
2019-02-25T00:56:35.416Z,2.98
2019-02-25T00:59:16.607Z,3.40
2019-02-25T01:01:57.909Z,3.33
2019-02-25T01:04:39.471Z,3.20
2019-02-25T01:07:20.813Z,3.20
2019-02-25T01:10:02.272Z,2.62
2019-02-25T01:12:43.544Z,2.83
2019-02-25T01:15:24.462Z,3.00
2019-02-25T01:18:06.034Z,3.27
2019-02-25T01:20:47.435Z,3.52
2019-02-25T01:23:28.951Z,2.70
2019-02-25T01:26:09.932Z,3.52
2019-02-25T01:28:50.769Z,2.95
2019-02-25T01:31:31.524Z,3.35
2019-02-25T01:34:12.280Z,4.50
2019-02-25T01:36:53.063Z,3.58
2019-02-25T01:39:34.330Z,3.40
2019-02-25T01:45:13.768Z,2.67
2019-02-25T01:47:54.468Z,2.77
2019-02-25T01:50:35.768Z,2.92
2019-02-25T01:53:16.614Z,2.83
2019-02-25T01:55:57.347Z,3.05
2019-02-25T01:58:38.515Z,3.47
2019-02-25T02:01:19.291Z,2.55
2019-02-25T02:04:00.461Z,3.10
2019-02-25T02:06:41.792Z,2.92
2019-02-25T02:09:22.447Z,2.58
2019-02-25T02:12:03.608Z,2.70
2019-02-25T02:14:44.288Z,3.05
2019-02-25T02:17:24.979Z,2.60
2019-02-25T02:20:06.453Z,2.55
2019-02-25T02:22:47.984Z,2.55
2019-02-25T02:25:29.496Z,2.70
2019-02-25T02:28:10.267Z,2.98
2019-02-25T02:30:51.044Z,3.62
2019-02-25T02:33:32.003Z,3.25
2019-02-25T02:36:13.629Z,2.62
2019-02-25T02:38:55.157Z,3.15
2019-02-25T02:41:36.604Z,2.95
2019-02-25T02:44:18.097Z,2.75
2019-02-25T02:46:58.810Z,3.10
2019-02-25T02:49:40.240Z,2.85
2019-02-25T02:52:21.043Z,3.15
2019-02-25T02:55:02.165Z,3.05
2019-02-25T02:57:43.657Z,2.70
2019-02-25T03:00:25.009Z,2.47
2019-02-25T03:03:05.844Z,2.92
2019-02-25T03:05:46.660Z,3.00
2019-02-25T03:08:28.132Z,3.35
2019-02-25T03:11:08.861Z,3.20
2019-02-25T03:13:50.264Z,3.45
2019-02-25T03:19:43.941Z,2.55
2019-02-25T03:22:25.035Z,3.02
2019-02-25T03:25:06.637Z,3.30
2019-02-25T03:27:47.268Z,3.22
2019-02-25T03:30:27.949Z,3.20
2019-02-25T03:33:08.678Z,2.87
2019-02-25T03:35:49.316Z,3.35
2019-02-25T03:38:30.848Z,3.35
2019-02-25T03:41:12.169Z,3.30
2019-02-25T03:43:53.728Z,2.87
2019-02-25T03:46:35.135Z,3.50
2019-02-25T03:49:15.928Z,3.17
2019-02-25T03:51:57.324Z,3.70
2019-02-25T03:54:38.856Z,3.05
2019-02-25T03:57:20.117Z,4.17
2019-02-25T04:00:00.857Z,4.25
2019-02-25T04:02:41.549Z,4.08
2019-02-25T04:05:22.280Z,2.70
2019-02-25T04:08:02.910Z,3.77
2019-02-25T04:10:43.655Z,2.92
2019-02-25T04:13:24.624Z,3.72
2019-02-25T04:16:05.979Z,3.00
2019-02-25T04:18:47.235Z,3.80
2019-02-25T04:21:28.647Z,4.30
2019-02-25T04:24:09.422Z,3.50
2019-02-25T04:26:50.813Z,2.95
2019-02-25T04:29:32.250Z,3.55
2019-02-25T04:32:32.001Z,2.98
2019-02-25T04:35:12.599Z,2.92
2019-02-25T04:37:52.195Z,3.02
2019-02-25T04:40:40.702Z,2.90
2019-02-25T04:43:29.086Z,3.10
2019-02-25T04:46:09.795Z,4.00
2019-02-25T04:48:51.295Z,3.77
2019-02-25T04:51:32.055Z,3.50
2019-02-25T04:54:12.781Z,3.42
2019-02-25T04:56:53.428Z,3.00
2019-02-25T04:59:34.964Z,4.15
2019-02-25T05:02:15.624Z,3.65
2019-02-25T05:04:56.496Z,3.72
2019-02-25T05:07:37.184Z,3.50
2019-02-25T05:10:18.479Z,3.15
2019-02-25T05:13:02.681Z,3.45
2019-02-25T05:15:43.831Z,2.22
2019-02-25T05:18:25.170Z,2.75
2019-02-25T05:21:06.657Z,2.80
2019-02-25T05:23:47.213Z,2.80
2019-02-25T05:26:28.781Z,2.72
2019-02-25T05:29:10.331Z,3.05
2019-02-25T05:31:51.176Z,3.30
2019-02-25T05:34:32.458Z,2.67
2019-02-25T05:37:13.928Z,2.98
2019-02-25T05:39:55.245Z,2.25
2019-02-25T05:42:24.639Z,4.05
2019-02-25T05:45:05.411Z,3.80
2019-02-25T05:47:46.935Z,4.40
2019-02-25T05:50:27.691Z,2.85
2019-02-25T05:53:08.607Z,4.00
2019-02-25T05:55:49.315Z,3.20
2019-02-25T05:58:30.778Z,3.02
2019-02-25T06:01:11.655Z,3.33
2019-02-25T06:03:52.892Z,3.45
2019-02-25T06:06:33.641Z,3.55
2019-02-25T06:09:14.584Z,2.50
2019-02-25T06:11:55.660Z,3.08
2019-02-25T06:14:36.927Z,3.30
2019-02-25T06:17:17.547Z,3.83
2019-02-25T06:19:58.209Z,3.90
2019-02-25T06:22:39.046Z,3.25
2019-02-25T06:25:20.508Z,3.47
2019-02-25T06:28:01.911Z,3.10
2019-02-25T06:30:43.504Z,3.25
2019-02-25T06:33:24.287Z,2.95
2019-02-25T06:36:04.916Z,2.80
2019-02-25T06:38:45.572Z,2.45
2019-02-25T06:41:27.093Z,3.47
2019-02-25T06:44:08.388Z,3.05
2019-02-25T06:46:49.689Z,3.08
2019-02-25T06:49:31.043Z,2.65
2019-02-25T06:52:12.271Z,3.17
2019-02-25T06:54:53.815Z,3.10
2019-02-25T06:57:35.244Z,4.65
2019-02-25T07:00:16.684Z,2.77
2019-02-25T07:02:57.445Z,3.17
2019-02-25T07:05:57.319Z,3.43
2019-02-25T07:09:03.783Z,3.30
2019-02-25T07:12:07.128Z,3.70
2019-02-25T07:15:10.053Z,3.50
2019-02-25T07:18:06.814Z,4.40
2019-02-25T07:21:02.141Z,3.57
2019-02-25T07:24:09.496Z,3.77
2019-02-25T07:27:16.867Z,4.20
2019-02-25T07:30:24.966Z,5.20
2019-02-25T07:33:32.324Z,4.67
2019-02-25T07:36:39.697Z,4.57
2019-02-25T07:39:49.299Z,5.40
2019-02-25T07:42:56.672Z,3.43
2019-02-25T07:45:47.327Z,4.07
2019-02-25T07:48:50.504Z,4.00
2019-02-25T07:51:42.090Z,4.37
2019-02-25T07:54:42.400Z,4.70
2019-02-25T07:57:39.148Z,3.90
2019-02-25T08:00:39.308Z,4.80
2019-02-25T08:03:34.682Z,4.67
2019-02-25T08:06:27.247Z,3.80
2019-02-25T08:09:27.161Z,4.20
2019-02-25T08:12:27.180Z,4.47
2019-02-25T08:15:27.660Z,13.77
2019-02-25T08:18:23.343Z,10.43
2019-02-25T08:24:30.628Z,6.27
2019-02-25T08:27:26.763Z,6.37
2019-02-25T08:30:29.776Z,4.53
2019-02-25T08:33:32.340Z,5.20
2019-02-25T08:36:21.503Z,4.57
2019-02-25T08:39:11.216Z,4.63
2019-02-25T08:41:57.556Z,6.10
2019-02-25T08:44:52.427Z,5.23
2019-02-25T08:47:38.384Z,5.03
2019-02-25T08:50:19.967Z,5.47
2019-02-25T08:53:01.035Z,6.13
2019-02-25T08:55:41.692Z,5.63
2019-02-25T08:58:23.194Z,6.50
2019-02-25T09:01:04.403Z,6.33
2019-02-25T09:03:45.803Z,6.80
2019-02-25T09:06:27.295Z,5.67
2019-02-25T09:09:08.123Z,5.87
2019-02-25T09:11:48.808Z,6.30
2019-02-25T09:14:30.432Z,4.83
2019-02-25T09:17:11.106Z,5.80
2019-02-25T09:19:51.831Z,5.97
2019-02-25T09:22:32.456Z,5.27
2019-02-25T09:25:13.975Z,5.23
2019-02-25T09:27:54.688Z,5.80
2019-02-25T09:30:35.415Z,5.07
2019-02-25T09:33:16.443Z,6.13
2019-02-25T09:35:57.161Z,5.30
2019-02-25T09:38:37.870Z,5.23
2019-02-25T09:41:19.354Z,5.90
2019-02-25T09:44:00.860Z,6.00
2019-02-25T09:46:41.516Z,5.93
2019-02-25T09:49:22.250Z,5.93
2019-02-25T09:52:02.864Z,5.60
2019-02-25T09:54:43.539Z,7.03
2019-02-25T09:57:23.062Z,6.63
2019-02-25T10:03:11.330Z,5.70
2019-02-25T10:05:59.779Z,6.80
2019-02-25T10:08:48.202Z,5.93
2019-02-25T10:11:36.652Z,6.93
2019-02-25T10:14:25.126Z,5.30
2019-02-25T10:17:13.538Z,5.53
2019-02-25T10:20:01.963Z,5.50
2019-02-25T10:22:50.423Z,6.50
2019-02-25T10:25:38.871Z,6.00
2019-02-25T10:28:27.290Z,5.33
2019-02-25T10:31:17.364Z,5.20
2019-02-25T10:34:07.576Z,5.60
2019-02-25T10:36:55.899Z,6.80
2019-02-25T10:39:45.425Z,5.43
2019-02-25T10:42:36.086Z,5.20
2019-02-25T10:45:17.258Z,6.10
2019-02-25T10:47:58.963Z,6.40
2019-02-25T10:50:40.946Z,5.50
2019-02-25T10:53:22.173Z,5.37
2019-02-25T10:56:02.956Z,6.07
2019-02-25T10:58:43.620Z,5.83
2019-02-25T11:01:24.709Z,5.73
2019-02-25T11:04:05.770Z,5.03
2019-02-25T11:06:46.393Z,6.13
2019-02-25T11:09:48.196Z,5.97
2019-02-25T11:12:30.038Z,5.80
2019-02-25T11:15:13.745Z,6.50
2019-02-25T11:17:56.048Z,6.13
2019-02-25T11:20:37.821Z,5.97
2019-02-25T11:23:19.865Z,6.20
2019-02-25T11:26:02.190Z,5.60
2019-02-25T11:28:43.773Z,5.00
2019-02-25T11:31:26.945Z,5.10
2019-02-25T11:34:08.108Z,5.70
2019-02-25T11:36:50.846Z,4.60
2019-02-25T11:39:33.067Z,4.50
2019-02-25T11:42:17.424Z,5.30
2019-02-25T11:44:59.842Z,4.37
2019-02-25T11:47:40.202Z,5.23
2019-02-25T11:50:20.827Z,4.70
2019-02-25T11:53:01.575Z,4.43
2019-02-25T11:55:42.899Z,4.40
2019-02-25T11:58:24.362Z,3.80
2019-02-25T12:01:05.029Z,3.20
2019-02-25T12:03:45.650Z,3.30
2019-02-25T12:06:26.463Z,3.30
2019-02-25T12:09:07.196Z,2.50
2019-02-25T12:11:47.831Z,2.77
2019-02-25T12:14:28.534Z,3.60
2019-02-25T12:17:09.167Z,3.17
2019-02-25T12:19:49.990Z,3.47
2019-02-25T12:22:30.607Z,3.57
2019-02-25T12:25:11.477Z,3.63
2019-02-25T12:27:52.761Z,3.93
2019-02-25T12:30:33.579Z,4.10
2019-02-25T12:33:15.147Z,4.07
2019-02-25T12:35:55.686Z,4.20
2019-02-25T12:38:36.247Z,4.57
2019-02-25T12:41:16.873Z,5.00
2019-02-25T12:43:57.609Z,3.03
2019-02-25T12:46:38.431Z,3.80
2019-02-25T12:49:19.740Z,4.37
2019-02-25T12:52:00.468Z,4.60
2019-02-25T12:54:41.236Z,4.10
2019-02-25T12:57:21.987Z,5.50
2019-02-25T13:00:02.679Z,5.37
2019-02-25T13:02:43.382Z,4.50
2019-02-25T13:05:24.787Z,4.90
2019-02-25T13:08:05.524Z,5.50
2019-02-25T13:10:46.209Z,5.83
2019-02-25T13:13:26.942Z,6.67
2019-02-25T13:16:07.495Z,5.90
2019-02-25T13:18:49.047Z,6.00
2019-02-25T13:21:29.709Z,6.17
2019-02-25T13:24:11.155Z,5.90
2019-02-25T13:26:51.755Z,6.03
2019-02-25T13:29:32.428Z,6.43
2019-02-25T13:32:13.952Z,8.30
2019-02-25T13:34:54.584Z,6.53
2019-02-25T13:37:36.131Z,7.40
2019-02-25T13:40:16.979Z,8.07
2019-02-25T13:42:57.686Z,7.73
2019-02-25T13:45:38.480Z,6.83
2019-02-25T13:48:19.223Z,6.97
2019-02-25T13:51:00.488Z,6.73
2019-02-25T13:53:41.199Z,7.37
2019-02-25T13:56:22.531Z,6.97
2019-02-25T13:59:03.967Z,7.17
2019-02-25T14:01:45.658Z,6.40
2019-02-25T14:04:26.334Z,7.67
2019-02-25T14:07:08.003Z,6.97
2019-02-25T14:09:49.295Z,6.70
2019-02-25T14:12:30.620Z,7.00
2019-02-25T14:15:11.331Z,8.60
2019-02-25T14:17:52.764Z,6.90
2019-02-25T14:20:34.104Z,7.30
2019-02-25T14:23:16.112Z,6.90
2019-02-25T14:25:57.254Z,7.60
2019-02-25T14:28:39.707Z,6.77
2019-02-25T14:31:21.154Z,5.93
2019-02-25T14:34:04.106Z,5.60
2019-02-25T14:36:46.371Z,6.80
2019-02-25T14:39:28.389Z,6.27
2019-02-25T14:42:09.985Z,5.97
2019-02-25T14:44:52.161Z,6.30
2019-02-25T14:47:37.022Z,5.17
2019-02-25T14:50:17.061Z,6.40
2019-02-25T14:53:00.177Z,5.57
2019-02-25T14:55:42.882Z,5.10
2019-02-25T14:58:23.706Z,5.70
2019-02-25T15:01:05.146Z,5.37
2019-02-25T15:03:46.335Z,5.00
2019-02-25T15:06:28.806Z,5.13
2019-02-25T15:09:12.511Z,4.70
2019-02-25T15:11:55.529Z,5.07
2019-02-25T15:14:35.739Z,5.00
2019-02-25T15:17:17.295Z,4.23
2019-02-25T15:19:58.638Z,5.37
2019-02-25T15:22:40.769Z,5.10
2019-02-25T15:25:22.278Z,4.83
2019-02-25T15:28:07.120Z,4.87
2019-02-25T15:30:46.195Z,4.43
2019-02-25T15:33:26.990Z,4.53
2019-02-25T15:36:07.624Z,3.70
2019-02-25T15:38:48.312Z,3.67
2019-02-25T15:41:29.089Z,3.37
2019-02-25T15:44:11.099Z,3.20
2019-02-25T15:46:52.332Z,2.70
2019-02-25T15:49:33.023Z,3.10
2019-02-25T15:52:16.534Z,2.97
2019-02-25T15:54:57.067Z,2.63
2019-02-25T15:57:38.645Z,2.47
2019-02-25T16:00:21.285Z,2.40
2019-02-25T16:03:03.887Z,3.20
2019-02-25T16:05:46.491Z,2.20
2019-02-25T16:08:28.816Z,2.43
2019-02-25T16:11:09.797Z,3.70
2019-02-25T16:13:53.243Z,3.20
2019-02-25T16:16:33.192Z,2.93
2019-02-25T16:19:13.888Z,2.83
2019-02-25T16:21:56.507Z,2.70
2019-02-25T16:24:37.308Z,3.40
2019-02-25T16:27:20.672Z,3.07
2019-02-25T16:30:02.945Z,3.40
2019-02-25T16:32:44.573Z,2.67
2019-02-25T16:35:26.763Z,3.17
2019-02-25T16:38:07.612Z,3.77
2019-02-25T16:40:50.199Z,2.60
2019-02-25T16:43:31.643Z,2.73
2019-02-25T16:46:15.440Z,2.87
2019-02-25T16:48:57.261Z,3.30
2019-02-25T16:51:37.959Z,3.07
2019-02-25T16:54:21.164Z,2.87
2019-02-25T16:57:02.094Z,3.33
2019-02-25T16:59:42.827Z,2.47
2019-02-25T17:02:24.576Z,2.97
2019-02-25T17:05:05.383Z,2.60
2019-02-25T17:07:46.501Z,2.60
2019-02-25T17:10:29.716Z,2.60
2019-02-25T17:13:10.892Z,3.20
2019-02-25T17:15:52.759Z,3.10
2019-02-25T17:18:33.389Z,2.30
2019-02-25T17:21:14.127Z,3.20
2019-02-25T17:23:56.240Z,3.23
2019-02-25T17:26:38.000Z,2.73
2019-02-25T17:29:18.840Z,2.50
2019-02-25T17:32:01.901Z,2.87
2019-02-25T17:34:43.780Z,2.73
2019-02-25T17:37:26.699Z,3.07
2019-02-25T17:40:08.574Z,2.70
2019-02-25T17:42:51.641Z,2.30
2019-02-25T17:45:34.575Z,2.80
2019-02-25T17:48:16.174Z,2.60
2019-02-25T17:50:59.907Z,3.00
2019-02-25T17:53:41.259Z,2.33
2019-02-25T17:56:22.551Z,2.20
2019-02-25T17:59:05.517Z,2.30
2019-02-25T18:01:48.508Z,2.13
2019-02-25T18:04:30.899Z,2.30
2019-02-25T18:07:12.632Z,2.20
2019-02-25T18:09:54.031Z,2.50
2019-02-25T18:12:36.484Z,2.47
2019-02-25T18:15:17.944Z,2.57
2019-02-25T18:17:59.580Z,2.80
2019-02-25T18:20:40.166Z,2.63
2019-02-25T18:23:21.946Z,2.50
2019-02-25T18:26:03.318Z,2.63
2019-02-25T18:28:44.317Z,3.00
2019-02-25T18:31:26.464Z,2.97
2019-02-25T18:34:09.007Z,2.30
2019-02-25T18:36:51.584Z,2.17
2019-02-25T18:39:32.449Z,3.37
2019-02-25T18:42:15.449Z,2.67
2019-02-25T18:44:56.144Z,2.57
2019-02-25T18:47:37.499Z,3.37
2019-02-25T18:50:19.923Z,3.00
2019-02-25T18:53:01.338Z,2.87
2019-02-25T18:55:42.719Z,3.40
2019-02-25T18:58:24.286Z,2.50
2019-02-25T19:01:06.631Z,2.27
2019-02-25T19:03:48.315Z,2.10
2019-02-25T19:06:29.972Z,2.70
2019-02-25T19:09:12.329Z,2.70
2019-02-25T19:11:54.028Z,2.40
2019-02-25T19:14:35.483Z,2.60
2019-02-25T19:17:16.218Z,2.80
2019-02-25T19:19:55.763Z,2.30
2019-02-25T19:25:53.415Z,2.07
2019-02-25T19:28:44.061Z,3.13
2019-02-25T19:31:32.001Z,4.63
2019-02-25T19:34:22.066Z,3.23
2019-02-25T19:37:12.220Z,2.50
2019-02-25T19:40:00.636Z,2.73
2019-02-25T19:42:51.363Z,2.97
2019-02-25T19:45:31.927Z,2.77
2019-02-25T19:48:12.585Z,2.67
2019-02-25T19:50:54.046Z,3.17
2019-02-25T19:53:36.598Z,2.97
2019-02-25T19:56:17.728Z,2.97
2019-02-25T19:59:00.530Z,3.40
2019-02-25T20:01:41.095Z,3.37
2019-02-25T20:04:22.614Z,2.67
2019-02-25T20:07:04.039Z,2.70
2019-02-25T20:09:44.787Z,2.80
2019-02-25T20:12:26.274Z,2.60
2019-02-25T20:15:09.110Z,2.63
2019-02-25T20:17:50.658Z,2.40
2019-02-25T20:20:37.018Z,2.40
2019-02-25T20:23:19.988Z,2.20
2019-02-25T20:26:00.495Z,2.57
2019-02-25T20:28:41.747Z,2.80
2019-02-25T20:31:23.875Z,2.73
2019-02-25T20:34:05.379Z,2.77
2019-02-25T20:36:48.327Z,2.37
2019-02-25T20:39:29.311Z,2.97
2019-02-25T20:42:10.858Z,3.30
2019-02-25T20:44:53.460Z,2.23
2019-02-25T20:47:34.900Z,3.33
2019-02-25T20:50:15.702Z,2.60
2019-02-25T20:52:58.236Z,2.70
2019-02-25T20:55:38.917Z,2.60
2019-02-25T20:58:20.894Z,2.80
2019-02-25T21:01:05.291Z,3.30
2019-02-25T21:03:46.035Z,2.93
2019-02-25T21:06:28.108Z,3.30
2019-02-25T21:09:08.903Z,3.57
2019-02-25T21:11:57.735Z,3.67
2019-02-25T21:14:46.196Z,3.23
2019-02-25T21:17:35.526Z,3.40
2019-02-25T21:20:26.086Z,2.63
2019-02-25T21:23:14.797Z,3.90
2019-02-25T21:26:06.290Z,2.80
2019-02-25T21:28:56.017Z,3.87
2019-02-25T21:31:45.698Z,2.90
2019-02-25T21:34:33.523Z,2.53
2019-02-25T21:37:23.375Z,2.90
2019-02-25T21:40:13.195Z,2.97
2019-02-25T21:43:01.615Z,3.37
2019-02-25T21:45:46.062Z,3.03
2019-02-25T21:48:27.370Z,3.50
2019-02-25T21:51:09.723Z,3.73
2019-02-25T21:53:53.707Z,3.80
2019-02-25T21:56:33.503Z,4.20
2019-02-25T21:59:17.055Z,2.70
2019-02-25T22:01:59.248Z,3.30
2019-02-25T22:04:42.437Z,3.37
2019-02-25T22:07:24.973Z,2.67
2019-02-25T22:10:05.361Z,2.70
2019-02-25T22:12:46.639Z,2.63
2019-02-25T22:15:27.190Z,2.60
2019-02-25T22:18:10.911Z,2.95
2019-02-25T22:20:51.458Z,2.87
2019-02-25T22:23:33.234Z,2.93
2019-02-25T22:26:15.891Z,3.25
2019-02-25T22:28:57.941Z,3.03
2019-02-25T22:31:40.068Z,3.87
2019-02-25T22:34:22.964Z,3.60
2019-02-25T22:37:04.570Z,3.60
2019-02-25T22:39:46.171Z,3.33
2019-02-25T22:42:29.686Z,3.63
2019-02-25T22:45:11.996Z,3.15
2019-02-25T22:47:53.919Z,2.77
2019-02-25T22:50:36.070Z,3.25
2019-02-25T22:53:18.105Z,3.12
2019-02-25T22:55:59.546Z,5.00
2019-02-25T22:58:42.755Z,4.20
2019-02-25T23:01:23.479Z,3.65
2019-02-25T23:04:04.885Z,2.95
2019-02-25T23:06:46.950Z,3.40
2019-02-25T23:09:28.673Z,3.47
2019-02-25T23:12:09.343Z,3.40
2019-02-25T23:14:50.195Z,4.25
2019-02-25T23:17:35.122Z,3.70
2019-02-25T23:20:14.463Z,2.90
2019-02-25T23:22:57.285Z,3.10
2019-02-25T23:25:38.336Z,4.65
2019-02-25T23:28:20.588Z,3.10
2019-02-25T23:31:01.288Z,3.05
2019-02-25T23:33:42.264Z,2.17
2019-02-25T23:36:26.579Z,4.10
2019-02-25T23:39:07.087Z,3.20
2019-02-25T23:41:48.752Z,3.30
2019-02-25T23:44:30.310Z,2.80
2019-02-25T23:47:10.994Z,2.95
2019-02-25T23:49:52.543Z,3.12
2019-02-25T23:52:35.333Z,3.10
2019-02-25T23:55:18.656Z,2.92
2019-02-25T23:57:58.045Z,2.87
